createdAt,value
2022-07-26T00:00:13.428Z,101694.66
2022-07-26T00:02:47.435Z,101696.13
2022-07-26T00:05:19.595Z,101701.00
2022-07-26T00:07:49.125Z,101700.84
2022-07-26T00:10:18.401Z,101701.69
2022-07-26T00:12:47.627Z,101708.66
2022-07-26T00:15:17.071Z,101706.06
2022-07-26T00:17:46.328Z,101710.13
2022-07-26T00:20:15.572Z,101704.59
2022-07-26T00:22:46.519Z,101697.66
2022-07-26T00:25:15.894Z,101710.44
2022-07-26T00:27:45.179Z,101710.44
2022-07-26T00:30:15.525Z,101705.94
2022-07-26T00:32:44.921Z,101718.72
2022-07-26T00:35:14.770Z,101711.56
2022-07-26T00:37:45.722Z,101718.22
2022-07-26T00:40:16.450Z,101706.38
2022-07-26T00:42:46.025Z,101703.13
2022-07-26T00:45:16.337Z,101710.28
2022-07-26T00:47:46.885Z,101710.28
2022-07-26T00:50:18.736Z,101723.78
2022-07-26T00:52:51.808Z,101718.22
2022-07-26T00:55:21.965Z,101716.44
2022-07-26T00:57:51.815Z,101718.06
2022-07-26T01:00:26.573Z,101725.84
2022-07-26T01:02:56.301Z,101722.78
2022-07-26T01:05:26.518Z,101722.13
2022-07-26T01:07:57.681Z,101727.81
2022-07-26T01:10:27.292Z,101721.16
2022-07-26T01:12:56.453Z,101728.31
2022-07-26T01:15:25.604Z,101736.28
2022-07-26T01:17:54.882Z,101731.25
2022-07-26T01:20:24.073Z,101717.13
2022-07-26T01:22:54.682Z,101729.47
2022-07-26T01:25:31.675Z,101738.56
2022-07-26T01:28:00.942Z,101734.03
2022-07-26T01:30:30.289Z,101743.94
2022-07-26T01:32:59.781Z,101736.78
2022-07-26T01:35:29.494Z,101739.53
2022-07-26T01:38:00.037Z,101736.44
2022-07-26T01:40:29.355Z,101743.44
2022-07-26T01:42:58.466Z,101741.50
2022-07-26T01:45:27.978Z,101735.47
2022-07-26T01:47:57.516Z,101743.44
2022-07-26T01:50:26.802Z,101744.41
2022-07-26T01:52:56.390Z,101742.78
2022-07-26T01:55:26.948Z,101739.53
2022-07-26T01:57:56.446Z,101745.06
2022-07-26T02:00:25.792Z,101729.91
2022-07-26T02:02:55.481Z,101745.06
2022-07-26T02:05:24.920Z,101744.06
2022-07-26T02:07:54.124Z,101743.44
2022-07-26T02:10:46.449Z,101739.84
2022-07-26T02:13:16.729Z,101743.59
2022-07-26T02:15:46.000Z,101742.56
2022-07-26T02:18:15.372Z,101744.38
2022-07-26T02:20:44.567Z,101738.50
2022-07-26T02:23:14.444Z,101743.03
2022-07-26T02:25:45.199Z,101729.88
2022-07-26T02:28:14.411Z,101745.16
2022-07-26T02:30:44.340Z,101730.72
2022-07-26T02:33:28.948Z,101735.75
2022-07-26T02:46:25.431Z,101735.28
2022-07-26T02:48:54.815Z,101705.38
2022-07-26T02:51:24.298Z,101730.72
2022-07-26T02:53:54.038Z,101732.84
2022-07-26T02:56:23.285Z,101734.47
2022-07-26T02:58:52.668Z,101729.75
2022-07-26T03:01:22.007Z,101728.13
2022-07-26T03:03:52.911Z,101728.13
2022-07-26T03:06:22.318Z,101733.66
2022-07-26T03:08:52.034Z,101740.28
2022-07-26T03:11:21.260Z,101739.16
2022-07-26T03:13:50.396Z,101748.56
2022-07-26T03:16:22.749Z,101745.19
2022-07-26T03:18:55.609Z,101748.88
2022-07-26T03:21:24.951Z,101743.69
2022-07-26T03:23:54.102Z,101748.06
2022-07-26T03:26:23.431Z,101744.97
2022-07-26T03:28:52.983Z,101740.47
2022-07-26T03:31:23.613Z,101748.25
2022-07-26T03:33:55.240Z,101731.03
2022-07-26T03:36:27.045Z,101734.75
2022-07-26T03:38:56.556Z,101743.69
2022-07-26T03:41:25.733Z,101742.72
2022-07-26T03:43:55.112Z,101732.50
2022-07-26T03:46:24.519Z,101737.03
2022-07-26T03:48:55.169Z,101745.16
2022-07-26T03:51:24.910Z,101739.63
2022-07-26T03:53:54.475Z,101733.59
2022-07-26T03:56:34.443Z,101751.13
2022-07-26T03:59:07.267Z,101734.22
2022-07-26T04:01:37.353Z,101727.72
2022-07-26T04:04:09.095Z,101747.88
2022-07-26T04:06:38.889Z,101737.81
2022-07-26T04:09:09.097Z,101735.06
2022-07-26T04:11:38.538Z,101735.84
2022-07-26T04:14:08.150Z,101749.84
2022-07-26T04:16:42.902Z,101741.88
2022-07-26T04:19:14.628Z,101746.41
2022-07-26T04:21:43.821Z,101746.91
2022-07-26T04:24:12.936Z,101759.22
2022-07-26T04:26:42.191Z,101715.38
2022-07-26T04:29:12.882Z,101751.13
2022-07-26T04:31:42.086Z,101754.34
2022-07-26T04:34:11.570Z,101775.94
2022-07-26T04:36:42.405Z,101763.41
2022-07-26T04:39:12.061Z,101776.72
2022-07-26T04:41:41.213Z,101762.34
2022-07-26T04:44:10.716Z,101773.94
2022-07-26T04:46:40.361Z,101766.25
2022-07-26T04:49:14.971Z,101769.38
2022-07-26T04:51:47.023Z,101757.00
2022-07-26T04:54:20.769Z,101771.16
2022-07-26T04:56:50.228Z,101760.13
2022-07-26T04:59:21.891Z,101768.06
2022-07-26T05:01:51.493Z,101764.50
2022-07-26T05:04:20.795Z,101776.47
2022-07-26T05:06:51.614Z,101781.19
2022-07-26T05:09:24.423Z,101779.91
2022-07-26T05:11:53.519Z,101782.53
2022-07-26T05:14:25.292Z,101779.91
2022-07-26T05:16:57.289Z,101783.59
2022-07-26T05:19:26.577Z,101779.53
2022-07-26T05:21:57.296Z,101775.28
2022-07-26T05:24:26.767Z,101767.63
2022-07-26T05:26:58.995Z,101784.69
2022-07-26T05:29:31.061Z,101784.69
2022-07-26T05:32:00.430Z,101788.47
2022-07-26T05:34:29.802Z,101791.22
2022-07-26T05:37:00.488Z,101786.44
2022-07-26T05:39:29.823Z,101788.53
2022-07-26T05:41:58.927Z,101796.00
2022-07-26T05:44:30.906Z,101799.59
2022-07-26T05:47:00.238Z,101797.81
2022-07-26T05:49:40.348Z,101796.06
2022-07-26T05:52:11.384Z,101793.66
2022-07-26T05:54:40.959Z,101801.91
2022-07-26T05:57:10.170Z,101795.75
2022-07-26T05:59:39.376Z,101804.66
2022-07-26T06:02:09.187Z,101799.97
2022-07-26T06:04:38.476Z,101811.97
2022-07-26T06:07:08.079Z,101795.13
2022-07-26T06:09:38.768Z,101802.63
2022-07-26T06:12:08.623Z,101807.66
2022-07-26T06:14:37.940Z,101808.72
2022-07-26T06:17:07.297Z,101804.09
2022-07-26T06:19:36.809Z,101807.84
2022-07-26T06:22:06.143Z,101809.31
2022-07-26T06:24:35.410Z,101819.22
2022-07-26T06:27:06.216Z,101803.28
2022-07-26T06:29:35.644Z,101819.59
2022-07-26T06:32:05.117Z,101824.31
2022-07-26T06:34:34.500Z,101827.22
2022-07-26T06:37:04.535Z,101834.19
2022-07-26T06:39:33.808Z,101834.34
2022-07-26T06:42:03.002Z,101838.47
2022-07-26T06:44:33.630Z,101838.78
2022-07-26T06:47:02.936Z,101844.47
2022-07-26T06:49:32.331Z,101841.75
2022-07-26T06:52:01.645Z,101816.34
2022-07-26T06:54:30.834Z,101846.09
2022-07-26T06:57:00.829Z,101840.56
2022-07-26T06:59:30.153Z,101846.56
2022-07-26T07:02:01.865Z,101859.25
2022-07-26T07:04:32.394Z,101856.69
2022-07-26T07:07:06.089Z,101866.59
2022-07-26T07:09:36.586Z,101860.31
2022-07-26T07:12:09.768Z,101865.72
2022-07-26T07:14:40.500Z,101871.06
2022-07-26T07:17:15.956Z,101878.53
2022-07-26T07:19:47.847Z,101868.00
2022-07-26T07:22:17.263Z,101869.44
2022-07-26T07:24:46.700Z,101875.28
2022-07-26T07:27:17.835Z,101883.25
2022-07-26T07:29:47.023Z,101880.34
2022-07-26T07:32:19.741Z,101875.28
2022-07-26T07:34:49.901Z,101882.31
2022-07-26T07:37:20.434Z,101881.50
2022-07-26T07:39:50.617Z,101886.88
2022-07-26T07:42:20.695Z,101863.97
2022-07-26T07:44:50.313Z,101883.28
2022-07-26T07:47:22.346Z,101886.38
2022-07-26T07:49:51.886Z,101879.25
2022-07-26T07:52:21.102Z,101890.41
2022-07-26T07:54:50.636Z,101882.31
2022-07-26T07:57:20.666Z,101892.06
2022-07-26T07:59:53.640Z,101899.34
2022-07-26T08:02:24.489Z,101893.16
2022-07-26T08:04:54.347Z,101897.53
2022-07-26T08:07:23.840Z,101896.22
2022-07-26T08:10:03.539Z,101894.69
2022-07-26T08:12:32.880Z,101900.16
2022-07-26T08:15:02.537Z,101899.34
2022-07-26T08:17:41.780Z,101867.47
2022-07-26T08:20:15.805Z,101903.50
2022-07-26T08:22:45.310Z,101905.78
2022-07-26T08:25:14.623Z,101891.66
2022-07-26T08:27:55.090Z,101896.94
2022-07-26T08:30:32.259Z,101902.72
2022-07-26T08:33:03.028Z,101910.69
2022-07-26T08:35:32.345Z,101903.69
2022-07-26T08:38:02.060Z,101903.97
2022-07-26T08:40:31.436Z,101904.97
2022-07-26T08:43:01.961Z,101904.72
2022-07-26T08:45:33.119Z,101899.13
2022-07-26T08:48:19.197Z,101911.16
2022-07-26T08:50:49.283Z,101903.66
2022-07-26T08:53:18.544Z,101911.81
2022-07-26T08:56:06.413Z,101898.22
2022-07-26T08:58:37.867Z,101899.56
2022-07-26T09:01:09.950Z,101912.78
2022-07-26T09:03:41.474Z,101912.38
2022-07-26T09:06:17.475Z,101905.53
2022-07-26T09:08:49.002Z,101905.53
2022-07-26T09:11:30.128Z,101905.53
2022-07-26T09:14:02.574Z,101901.53
2022-07-26T09:16:37.251Z,101897.59
2022-07-26T09:19:22.888Z,101910.13
2022-07-26T09:21:53.297Z,101902.94
2022-07-26T09:24:36.766Z,101907.31
2022-07-26T09:27:09.424Z,101904.66
2022-07-26T09:29:48.095Z,101901.78
2022-07-26T09:32:19.913Z,101890.13
2022-07-26T09:34:57.763Z,101901.69
2022-07-26T09:37:39.060Z,101911.69
2022-07-26T09:40:11.217Z,101910.38
2022-07-26T09:42:54.569Z,101915.94
2022-07-26T09:45:24.280Z,101905.59
2022-07-26T09:47:54.127Z,101916.47
2022-07-26T09:50:27.961Z,101918.09
2022-07-26T09:53:10.715Z,101908.97
2022-07-26T09:55:57.509Z,101909.03
2022-07-26T09:58:28.425Z,101911.84
2022-07-26T10:01:02.311Z,101902.34
2022-07-26T10:03:32.606Z,101908.59
2022-07-26T10:06:05.105Z,101904.19
2022-07-26T10:08:34.294Z,101926.97
2022-07-26T10:11:08.408Z,101911.09
2022-07-26T10:13:38.874Z,101918.38
2022-07-26T10:16:28.739Z,101917.81
2022-07-26T10:18:59.253Z,101922.88
2022-07-26T10:21:31.872Z,101926.81
2022-07-26T10:24:02.710Z,101922.41
2022-07-26T10:26:45.754Z,101918.38
2022-07-26T10:29:31.516Z,101928.34
2022-07-26T10:32:21.458Z,101922.88
2022-07-26T10:34:50.921Z,101931.94
2022-07-26T10:37:30.627Z,101929.19
2022-07-26T10:40:22.774Z,101930.81
2022-07-26T10:42:52.494Z,101923.44
2022-07-26T10:45:24.437Z,101920.66
2022-07-26T10:48:16.676Z,101928.28
2022-07-26T10:50:48.533Z,101927.25
2022-07-26T10:53:24.558Z,101938.13
2022-07-26T10:55:55.822Z,101937.09
2022-07-26T10:58:28.944Z,101928.28
2022-07-26T11:01:01.481Z,101931.59
2022-07-26T11:03:42.266Z,101933.44
2022-07-26T11:06:14.227Z,101932.06
2022-07-26T11:08:48.702Z,101934.91
2022-07-26T11:11:31.044Z,101943.34
2022-07-26T11:14:09.109Z,101919.38
2022-07-26T11:16:41.208Z,101926.06
2022-07-26T11:19:19.029Z,101927.88
2022-07-26T11:21:56.245Z,101939.94
2022-07-26T11:24:27.492Z,101939.00
2022-07-26T11:26:56.833Z,101933.34
2022-07-26T11:29:38.463Z,101936.59
2022-07-26T11:32:19.218Z,101930.56
2022-07-26T11:34:58.542Z,101947.94
2022-07-26T11:37:28.210Z,101943.91
2022-07-26T11:39:58.912Z,101931.97
2022-07-26T11:42:28.351Z,101928.59
2022-07-26T11:44:57.547Z,101923.09
2022-07-26T11:47:26.984Z,101925.59
2022-07-26T11:52:46.000Z,101943.41
2022-07-26T11:55:16.757Z,101932.75
2022-07-26T11:57:46.113Z,101932.75
2022-07-26T12:00:18.328Z,101936.84
2022-07-26T12:02:50.345Z,101940.25
2022-07-26T12:05:25.716Z,101940.63
2022-07-26T12:07:58.084Z,101929.72
2022-07-26T12:10:29.600Z,101933.50
2022-07-26T12:13:10.093Z,101927.09
2022-07-26T12:15:47.767Z,101939.63
2022-07-26T12:18:25.725Z,101941.41
2022-07-26T12:21:06.715Z,101940.53
2022-07-26T12:23:45.252Z,101948.44
2022-07-26T12:26:27.906Z,101951.41
2022-07-26T12:28:58.381Z,101955.38
2022-07-26T12:31:30.178Z,101944.94
2022-07-26T12:34:00.318Z,101934.69
2022-07-26T12:36:30.484Z,101946.75
2022-07-26T12:39:01.332Z,101940.78
2022-07-26T12:41:41.042Z,101928.47
2022-07-26T12:44:12.617Z,101919.22
2022-07-26T12:46:44.992Z,101926.69
2022-07-26T12:49:14.805Z,101935.31
2022-07-26T12:51:44.924Z,101938.84
2022-07-26T12:54:14.751Z,101932.69
2022-07-26T12:56:46.367Z,101940.41
2022-07-26T12:59:18.124Z,101932.75
2022-07-26T13:01:47.540Z,101939.97
2022-07-26T13:04:17.398Z,101938.16
2022-07-26T13:06:46.837Z,101925.50
2022-07-26T13:09:17.186Z,101913.84
2022-07-26T13:11:48.269Z,101919.88
2022-07-26T13:14:17.594Z,101939.16
2022-07-26T13:16:46.904Z,101929.69
2022-07-26T13:19:16.696Z,101935.41
2022-07-26T13:21:52.294Z,101925.41
2022-07-26T13:24:22.504Z,101934.69
2022-07-26T13:26:53.743Z,101932.75
2022-07-26T13:29:23.539Z,101932.31
2022-07-26T13:31:53.921Z,101933.81
2022-07-26T13:34:24.255Z,101921.81
2022-07-26T13:36:53.853Z,101881.97
2022-07-26T13:39:23.120Z,101897.09
2022-07-26T13:41:54.433Z,101930.38
2022-07-26T13:44:24.289Z,101932.84
2022-07-26T13:46:53.745Z,101925.06
2022-07-26T13:49:23.119Z,101927.31
2022-07-26T13:51:58.610Z,101937.03
2022-07-26T13:54:31.349Z,101911.22
2022-07-26T13:57:05.355Z,101913.38
2022-07-26T13:59:35.081Z,101916.78
2022-07-26T14:02:05.754Z,101883.97
2022-07-26T14:04:36.147Z,101924.94
2022-07-26T14:07:05.397Z,101936.84
2022-07-26T14:09:34.847Z,101921.66
2022-07-26T14:12:06.440Z,101925.59
2022-07-26T14:14:37.938Z,101921.41
2022-07-26T14:17:07.289Z,101929.28
2022-07-26T14:19:37.081Z,101938.19
2022-07-26T14:22:06.421Z,101930.31
2022-07-26T14:24:35.818Z,101936.53
2022-07-26T14:27:06.623Z,101933.41
2022-07-26T14:29:35.895Z,101933.50
2022-07-26T14:32:05.668Z,101941.00
2022-07-26T14:34:34.933Z,101931.25
2022-07-26T14:37:09.923Z,101927.22
2022-07-26T14:39:53.502Z,101939.19
2022-07-26T14:42:25.265Z,101930.81
2022-07-26T14:44:54.617Z,101932.16
2022-07-26T14:47:23.898Z,101931.06
2022-07-26T14:49:53.270Z,101926.03
2022-07-26T14:52:22.687Z,101927.94
2022-07-26T14:54:51.971Z,101932.63
2022-07-26T14:57:21.290Z,101938.56
2022-07-26T14:59:52.017Z,101938.88
2022-07-26T15:02:21.659Z,101927.75
2022-07-26T15:04:51.279Z,101943.28
2022-07-26T15:07:20.611Z,101931.84
2022-07-26T15:09:49.918Z,101932.50
2022-07-26T15:12:19.324Z,101940.53
2022-07-26T15:14:48.563Z,101937.63
2022-07-26T15:17:19.665Z,101940.88
2022-07-26T15:19:49.390Z,101933.59
2022-07-26T15:22:18.891Z,101938.47
2022-07-26T15:24:48.139Z,101937.88
2022-07-26T15:27:17.479Z,101920.44
2022-07-26T15:29:48.670Z,101931.53
2022-07-26T15:32:20.995Z,101933.06
2022-07-26T15:34:50.097Z,101927.94
2022-07-26T15:37:19.941Z,101921.47
2022-07-26T15:39:49.255Z,101926.13
2022-07-26T15:42:22.057Z,101921.84
2022-07-26T15:44:52.785Z,101915.34
2022-07-26T15:47:52.495Z,101908.47
2022-07-26T15:50:15.937Z,101915.16
2022-07-26T15:52:48.580Z,101904.41
2022-07-26T15:55:19.585Z,101901.81
2022-07-26T15:57:48.816Z,101908.84
2022-07-26T16:00:19.112Z,101903.84
2022-07-26T16:02:50.334Z,101907.72
2022-07-26T16:05:20.103Z,101904.25
2022-07-26T16:07:49.500Z,101896.41
2022-07-26T16:10:19.688Z,101905.19
2022-07-26T16:12:48.909Z,101905.38
2022-07-26T16:15:18.113Z,101902.25
2022-07-26T16:17:48.780Z,101911.31
2022-07-26T16:20:19.596Z,101916.19
2022-07-26T16:22:49.156Z,101910.19
2022-07-26T16:25:18.628Z,101903.44
2022-07-26T16:27:47.896Z,101906.94
2022-07-26T16:30:17.886Z,101901.78
2022-07-26T16:32:48.791Z,101905.06
2022-07-26T16:35:18.574Z,101902.75
2022-07-26T16:37:49.587Z,101905.66
2022-07-26T16:40:19.084Z,101908.13
2022-07-26T16:42:48.398Z,101892.13
2022-07-26T16:45:17.736Z,101892.59
2022-07-26T16:47:48.439Z,101895.19
2022-07-26T16:50:27.397Z,101890.00
2022-07-26T16:52:57.460Z,101871.47
2022-07-26T16:55:26.977Z,101873.91
2022-07-26T16:57:56.348Z,101883.84
2022-07-26T17:00:25.716Z,101875.19
2022-07-26T17:02:56.753Z,101844.97
2022-07-26T17:05:26.400Z,101879.56
2022-07-26T17:07:55.760Z,101880.66
2022-07-26T17:10:28.164Z,101881.94
2022-07-26T17:12:57.505Z,101877.44
2022-07-26T17:15:26.964Z,101862.09
2022-07-26T17:17:57.621Z,101859.09
2022-07-26T17:20:27.458Z,101849.97
2022-07-26T17:22:57.154Z,101868.03
2022-07-26T17:25:26.633Z,101870.34
2022-07-26T17:27:55.843Z,101853.34
2022-07-26T17:30:25.552Z,101861.63
2022-07-26T17:32:56.264Z,101862.56
2022-07-26T17:35:25.779Z,101859.88
2022-07-26T17:37:56.516Z,101864.66
2022-07-26T17:40:26.057Z,101849.84
2022-07-26T17:42:56.487Z,101856.41
2022-07-26T17:45:25.647Z,101862.28
2022-07-26T17:47:56.568Z,101862.91
2022-07-26T17:50:36.431Z,101848.19
2022-07-26T17:53:07.287Z,101850.66
2022-07-26T17:55:36.598Z,101859.19
2022-07-26T17:58:05.747Z,101853.44
2022-07-26T18:00:35.087Z,101854.34
2022-07-26T18:03:06.050Z,101848.41
2022-07-26T18:05:39.605Z,101849.97
2022-07-26T18:08:10.649Z,101841.19
2022-07-26T18:10:40.295Z,101852.66
2022-07-26T18:13:10.271Z,101857.34
2022-07-26T18:15:39.787Z,101863.28
2022-07-26T18:18:11.345Z,101854.63
2022-07-26T18:20:40.764Z,101845.44
2022-07-26T18:23:10.016Z,101850.28
2022-07-26T18:25:39.517Z,101854.56
2022-07-26T18:28:09.697Z,101841.13
2022-07-26T18:30:39.276Z,101838.84
2022-07-26T18:33:12.033Z,101845.25
2022-07-26T18:35:41.492Z,101840.34
2022-07-26T18:38:12.092Z,101845.81
2022-07-26T18:40:41.459Z,101842.53
2022-07-26T18:43:11.042Z,101847.63
2022-07-26T18:45:40.524Z,101834.44
2022-07-26T18:48:11.486Z,101836.31
2022-07-26T18:50:41.155Z,101850.31
2022-07-26T18:53:12.762Z,101828.22
2022-07-26T18:55:42.018Z,101844.66
2022-07-26T18:58:11.593Z,101844.28
2022-07-26T19:00:41.159Z,101842.63
2022-07-26T19:03:11.822Z,101836.41
2022-07-26T19:05:41.528Z,101842.44
2022-07-26T19:08:10.906Z,101842.78
2022-07-26T19:10:40.104Z,101847.00
2022-07-26T19:13:09.483Z,101852.06
2022-07-26T19:15:38.774Z,101853.94
2022-07-26T19:18:16.210Z,101837.56
2022-07-26T19:20:45.895Z,101847.94
2022-07-26T19:23:15.326Z,101848.44
2022-07-26T19:25:44.697Z,101850.41
2022-07-26T19:28:16.424Z,101835.72
2022-07-26T19:30:46.264Z,101849.25
2022-07-26T19:33:17.041Z,101846.16
2022-07-26T19:35:46.414Z,101857.94
2022-07-26T19:38:15.578Z,101855.38
2022-07-26T19:40:45.601Z,101851.44
2022-07-26T19:43:15.000Z,101857.59
2022-07-26T19:45:44.609Z,101856.41
2022-07-26T19:48:14.658Z,101846.59
2022-07-26T19:50:45.542Z,101860.72
2022-07-26T19:53:15.311Z,101858.06
2022-07-26T19:55:44.861Z,101858.66
2022-07-26T19:58:14.356Z,101868.56
2022-07-26T20:00:44.067Z,101848.31
2022-07-26T20:03:13.988Z,101862.88
2022-07-26T20:05:45.404Z,101852.94
2022-07-26T20:08:15.149Z,101866.13
2022-07-26T20:10:44.700Z,101868.28
2022-07-26T20:13:13.937Z,101875.56
2022-07-26T20:15:43.622Z,101875.34
2022-07-26T20:18:12.820Z,101870.22
2022-07-26T20:20:44.487Z,101867.78
2022-07-26T20:23:13.808Z,101889.97
2022-07-26T20:25:42.989Z,101878.63
2022-07-26T20:28:12.326Z,101888.66
2022-07-26T20:30:41.636Z,101890.06
2022-07-26T20:33:11.302Z,101893.16
2022-07-26T20:35:40.788Z,101878.22
2022-07-26T20:38:11.603Z,101895.91
2022-07-26T20:40:41.563Z,101880.19
2022-07-26T20:43:11.942Z,101898.38
2022-07-26T20:45:43.630Z,101891.31
2022-07-26T20:48:13.027Z,101899.50
2022-07-26T20:50:42.436Z,101900.66
2022-07-26T20:53:13.139Z,101906.53
2022-07-26T20:55:42.641Z,101891.00
2022-07-26T20:58:12.165Z,101914.66
2022-07-26T21:00:43.580Z,101903.56
2022-07-26T21:03:13.912Z,101882.50
2022-07-26T21:05:43.783Z,101904.50
2022-07-26T21:08:16.983Z,101910.19
2022-07-26T21:10:47.643Z,101900.09
2022-07-26T21:13:16.914Z,101911.91
2022-07-26T21:15:46.155Z,101914.59
2022-07-26T21:18:15.600Z,101920.28
2022-07-26T21:20:46.435Z,101925.38
2022-07-26T21:23:18.377Z,101915.31
2022-07-26T21:25:48.050Z,101909.75
2022-07-26T21:28:18.040Z,101909.38
2022-07-26T21:30:47.699Z,101921.84
2022-07-26T21:33:17.162Z,101909.97
2022-07-26T21:35:46.770Z,101923.97
2022-07-26T21:38:17.520Z,101920.84
2022-07-26T21:40:47.706Z,101920.50
2022-07-26T21:43:19.699Z,101912.53
2022-07-26T21:45:49.124Z,101913.00
2022-07-26T21:48:18.439Z,101918.06
2022-07-26T21:50:47.750Z,101911.72
2022-07-26T21:53:18.609Z,101912.88
2022-07-26T21:55:47.924Z,101908.47
2022-07-26T21:58:17.318Z,101910.75
2022-07-26T22:00:46.647Z,101908.69
2022-07-26T22:03:15.949Z,101904.28
2022-07-26T22:05:46.946Z,101898.28
2022-07-26T22:08:19.563Z,101897.69
2022-07-26T22:10:49.653Z,101896.59
2022-07-26T22:13:19.223Z,101899.38
2022-07-26T22:15:49.033Z,101894.53
2022-07-26T22:18:20.324Z,101881.56
2022-07-26T22:20:50.420Z,101894.38
2022-07-26T22:23:23.067Z,101883.00
2022-07-26T22:25:52.065Z,101881.38
2022-07-26T22:28:21.301Z,101899.31
2022-07-26T22:30:50.628Z,101890.72
2022-07-26T22:33:19.858Z,101899.81
2022-07-26T22:35:50.079Z,101883.53
2022-07-26T22:38:20.891Z,101903.56
2022-07-26T22:40:50.370Z,101870.44
2022-07-26T22:43:19.644Z,101902.28
2022-07-26T22:45:49.076Z,101902.72
2022-07-26T22:48:18.453Z,101906.00
2022-07-26T22:50:47.601Z,101885.59
2022-07-26T22:53:16.891Z,101907.25
2022-07-26T22:55:47.453Z,101906.81
2022-07-26T22:58:16.657Z,101901.78
2022-07-26T23:00:45.996Z,101902.13
2022-07-26T23:03:19.531Z,101905.25
2022-07-26T23:05:52.277Z,101893.53
2022-07-26T23:08:47.086Z,101898.16
2022-07-26T23:11:12.522Z,101887.25
2022-07-26T23:13:41.893Z,101869.06
2022-07-26T23:16:11.129Z,101884.34
2022-07-26T23:18:40.376Z,101887.31
2022-07-26T23:21:09.582Z,101875.75
2022-07-26T23:23:39.000Z,101880.69
2022-07-26T23:26:08.339Z,101871.59
2022-07-26T23:28:38.941Z,101877.47
2022-07-26T23:31:10.930Z,101871.28
2022-07-26T23:33:51.358Z,101866.75
2022-07-26T23:36:28.437Z,101864.53
2022-07-26T23:38:59.912Z,101864.22
2022-07-26T23:41:30.033Z,101870.28
2022-07-26T23:44:00.668Z,101867.03
2022-07-26T23:46:30.164Z,101872.06
2022-07-26T23:49:00.243Z,101869.97
2022-07-26T23:51:29.523Z,101875.06
2022-07-26T23:53:59.179Z,101868.41
2022-07-26T23:56:28.496Z,101871.53
2022-07-26T23:58:59.184Z,101857.06
